createdAt,value
2023-02-04T00:01:43.692Z,100.00
2023-02-04T00:04:11.401Z,100.00
2023-02-04T00:06:37.780Z,100.00
2023-02-04T00:09:04.269Z,100.00
2023-02-04T00:11:30.668Z,100.00
2023-02-04T00:13:57.198Z,100.00
2023-02-04T00:16:23.605Z,100.00
2023-02-04T00:18:50.032Z,100.00
2023-02-04T00:21:16.406Z,100.00
2023-02-04T00:23:42.796Z,100.00
2023-02-04T00:26:09.160Z,100.00
2023-02-04T00:28:35.606Z,100.00
2023-02-04T00:31:01.958Z,100.00
2023-02-04T00:33:29.042Z,98.82
2023-02-04T00:35:56.390Z,93.11
2023-02-04T00:38:22.994Z,86.44
2023-02-04T00:40:49.353Z,81.79
2023-02-04T00:43:15.878Z,77.13
2023-02-04T00:45:42.272Z,74.95
2023-02-04T00:48:08.633Z,72.91
2023-02-04T00:50:39.655Z,70.74
2023-02-04T00:53:06.978Z,68.15
2023-02-04T00:55:33.461Z,68.10
2023-02-04T00:58:00.006Z,68.61
2023-02-04T01:00:26.361Z,64.89
2023-02-04T01:02:52.815Z,58.56
2023-02-04T01:05:19.445Z,55.01
2023-02-04T01:07:45.840Z,52.62
2023-02-04T01:10:12.337Z,50.33
2023-02-04T01:12:38.881Z,46.31
2023-02-04T01:15:05.711Z,43.88
2023-02-04T01:17:32.066Z,40.77
2023-02-04T01:19:58.860Z,38.86
2023-02-04T01:22:25.301Z,37.84
2023-02-04T01:24:51.705Z,35.87
2023-02-04T01:27:18.416Z,35.56
2023-02-04T01:29:44.766Z,34.43
2023-02-04T01:32:11.164Z,33.05
2023-02-04T01:34:37.764Z,32.94
2023-02-04T01:37:04.123Z,32.74
2023-02-04T01:39:30.456Z,32.49
2023-02-04T01:41:58.070Z,31.85
2023-02-04T01:44:24.422Z,33.08
2023-02-04T01:46:50.800Z,32.12
2023-02-04T01:49:17.172Z,31.41
2023-02-04T01:51:43.526Z,31.22
2023-02-04T01:54:11.973Z,31.54
2023-02-04T01:56:46.011Z,31.90
2023-02-04T01:59:13.406Z,32.61
2023-02-04T02:01:44.834Z,33.41
2023-02-04T02:04:13.374Z,33.64
2023-02-04T02:06:41.950Z,33.77
2023-02-04T02:09:08.413Z,33.77
2023-02-04T02:11:34.793Z,34.60
2023-02-04T02:14:01.170Z,36.46
2023-02-04T02:16:27.675Z,36.59
2023-02-04T02:18:54.740Z,38.26
2023-02-04T02:21:32.332Z,40.31
2023-02-04T02:24:01.108Z,41.54
2023-02-04T02:26:27.565Z,44.69
2023-02-04T02:28:54.007Z,46.39
2023-02-04T02:31:21.252Z,47.38
2023-02-04T02:33:47.815Z,50.00
2023-02-04T02:36:15.005Z,51.28
2023-02-04T02:38:41.569Z,53.60
2023-02-04T02:41:10.105Z,54.47
2023-02-04T02:43:36.471Z,53.92
2023-02-04T02:46:03.154Z,56.12
2023-02-04T02:48:29.580Z,56.31
2023-02-04T02:50:55.923Z,57.58
2023-02-04T02:53:22.488Z,57.68
2023-02-04T02:55:48.967Z,58.61
2023-02-04T02:58:26.364Z,56.90
2023-02-04T03:00:53.059Z,57.81
2023-02-04T03:03:44.337Z,58.64
2023-02-04T03:06:14.432Z,57.57
2023-02-04T03:08:40.890Z,55.10
2023-02-04T03:11:07.256Z,53.36
2023-02-04T03:13:34.072Z,53.08
2023-02-04T03:16:00.481Z,52.55
2023-02-04T03:18:27.193Z,54.61
2023-02-04T03:20:53.537Z,57.06
2023-02-04T03:23:20.106Z,59.17
2023-02-04T03:25:46.812Z,59.27
2023-02-04T03:28:13.263Z,60.06
2023-02-04T03:30:39.761Z,62.78
2023-02-04T03:33:06.294Z,62.02
2023-02-04T03:35:32.654Z,64.39
2023-02-04T03:37:59.001Z,63.88
2023-02-04T03:40:25.363Z,68.59
2023-02-04T03:42:51.714Z,68.56
2023-02-04T03:45:18.058Z,67.37
2023-02-04T03:47:44.650Z,65.93
2023-02-04T03:50:13.164Z,65.68
2023-02-04T03:52:39.932Z,64.97
2023-02-04T03:55:06.759Z,64.36
2023-02-04T03:57:33.098Z,63.19
2023-02-04T03:59:59.462Z,63.38
2023-02-04T04:02:25.896Z,64.25
2023-02-04T04:04:52.305Z,65.84
2023-02-04T04:07:18.662Z,64.63
2023-02-04T04:09:45.077Z,64.92
2023-02-04T04:12:11.424Z,65.11
2023-02-04T04:14:37.772Z,63.75
2023-02-04T04:17:04.134Z,64.78
2023-02-04T04:19:32.134Z,63.78
2023-02-04T04:21:58.688Z,64.30
2023-02-04T04:24:25.349Z,63.72
2023-02-04T04:26:51.701Z,62.18
2023-02-04T04:29:18.029Z,60.65
2023-02-04T04:31:45.003Z,59.24
2023-02-04T04:34:11.415Z,61.31
2023-02-04T04:36:37.756Z,63.01
2023-02-04T04:39:04.213Z,64.92
2023-02-04T04:41:30.558Z,67.86
2023-02-04T04:43:56.892Z,68.37
2023-02-04T04:46:23.563Z,69.15
2023-02-04T04:48:50.011Z,69.66
2023-02-04T04:51:16.354Z,69.45
2023-02-04T04:53:42.725Z,68.81
2023-02-04T04:56:09.106Z,70.52
2023-02-04T04:58:35.485Z,71.08
2023-02-04T05:01:01.908Z,71.50
2023-02-04T05:03:28.264Z,72.07
2023-02-04T05:05:54.634Z,74.15
2023-02-04T05:08:21.077Z,75.51
2023-02-04T05:10:47.431Z,78.19
2023-02-04T05:13:13.864Z,80.47
2023-02-04T05:15:40.218Z,83.14
2023-02-04T05:18:06.564Z,86.84
2023-02-04T05:20:33.213Z,93.47
2023-02-04T05:23:01.211Z,95.73
2023-02-04T05:25:28.765Z,98.66
2023-02-04T05:27:55.336Z,100.00
2023-02-04T05:30:22.127Z,100.00
2023-02-04T05:32:48.486Z,100.00
2023-02-04T05:35:14.820Z,100.00
2023-02-04T05:37:41.190Z,100.00
2023-02-04T05:40:08.084Z,100.00
2023-02-04T05:42:34.509Z,100.00
2023-02-04T05:45:01.150Z,100.00
2023-02-04T05:47:27.510Z,100.00
2023-02-04T05:49:53.848Z,100.00
2023-02-04T05:52:20.228Z,100.00
2023-02-04T05:54:46.899Z,100.00
2023-02-04T05:57:13.237Z,100.00
2023-02-04T05:59:39.622Z,100.00
2023-02-04T06:02:05.970Z,100.00
2023-02-04T06:04:32.405Z,100.00
2023-02-04T06:06:59.082Z,100.00
2023-02-04T06:09:25.498Z,100.00
2023-02-04T06:11:51.875Z,100.00
2023-02-04T06:14:18.457Z,100.00
2023-02-04T06:16:44.836Z,100.00
2023-02-04T06:19:11.245Z,100.00
2023-02-04T06:21:37.876Z,100.00
2023-02-04T06:24:05.480Z,100.00
2023-02-04T06:26:31.919Z,100.00
2023-02-04T06:28:58.485Z,100.00
2023-02-04T06:31:25.159Z,100.00
2023-02-04T06:33:51.637Z,100.00
2023-02-04T06:36:18.018Z,100.00
2023-02-04T06:38:44.374Z,100.00
2023-02-04T06:41:10.747Z,100.00
2023-02-04T06:43:37.288Z,100.00
2023-02-04T06:46:03.725Z,100.00
2023-02-04T06:48:31.187Z,100.00
2023-02-04T06:50:57.706Z,100.00
2023-02-04T06:53:24.059Z,100.00
2023-02-04T06:55:50.474Z,100.00
2023-02-04T06:58:17.060Z,100.00
2023-02-04T07:00:43.473Z,100.00
2023-02-04T07:03:09.820Z,100.00
2023-02-04T07:05:36.303Z,100.00
2023-02-04T07:08:02.720Z,100.00
2023-02-04T07:10:29.322Z,100.00
2023-02-04T07:12:56.059Z,100.00
2023-02-04T07:15:22.424Z,100.00
2023-02-04T07:17:49.073Z,100.00
2023-02-04T07:20:15.450Z,100.00
2023-02-04T07:22:42.447Z,100.00
2023-02-04T07:25:10.030Z,100.00
2023-02-04T07:27:36.465Z,100.00
2023-02-04T07:30:02.961Z,100.00
2023-02-04T07:32:32.750Z,100.00
2023-02-04T07:35:02.209Z,100.00
2023-02-04T07:37:29.145Z,100.00
2023-02-04T07:39:55.516Z,100.00
2023-02-04T07:42:22.126Z,100.00
2023-02-04T07:44:48.477Z,100.00
2023-02-04T07:47:14.841Z,100.00
2023-02-04T07:49:41.189Z,100.00
2023-02-04T07:52:07.719Z,100.00
2023-02-04T07:54:34.057Z,100.00
2023-02-04T07:57:00.641Z,100.00
2023-02-04T07:59:27.127Z,100.00
2023-02-04T08:01:53.609Z,100.00
2023-02-04T08:04:20.313Z,100.00
2023-02-04T08:06:46.650Z,100.00
2023-02-04T08:09:12.997Z,100.00
2023-02-04T08:11:39.377Z,100.00
2023-02-04T08:14:05.720Z,100.00
2023-02-04T08:16:32.157Z,100.00
2023-02-04T08:18:58.610Z,100.00
2023-02-04T08:21:24.951Z,100.00
2023-02-04T08:23:51.284Z,100.00
2023-02-04T08:26:17.880Z,100.00
2023-02-04T08:28:44.223Z,100.00
2023-02-04T08:31:13.369Z,100.00
2023-02-04T08:33:39.944Z,100.00
2023-02-04T08:36:07.196Z,100.00
2023-02-04T08:38:33.623Z,100.00
2023-02-04T08:41:00.182Z,100.00
2023-02-04T08:43:27.118Z,100.00
2023-02-04T08:45:53.473Z,100.00
2023-02-04T08:48:20.028Z,100.00
2023-02-04T08:50:46.393Z,100.00
2023-02-04T08:53:12.781Z,100.00
2023-02-04T08:55:39.160Z,100.00
2023-02-04T08:58:05.495Z,100.00
2023-02-04T09:00:32.204Z,100.00
2023-02-04T09:02:59.083Z,100.00
2023-02-04T09:05:25.507Z,100.00
2023-02-04T09:07:54.836Z,100.00
2023-02-04T09:10:21.257Z,100.00
2023-02-04T09:12:48.064Z,100.00
2023-02-04T09:15:14.473Z,100.00
2023-02-04T09:17:42.273Z,100.00
2023-02-04T09:20:10.151Z,100.00
2023-02-04T09:22:37.746Z,100.00
2023-02-04T09:25:04.325Z,100.00
2023-02-04T09:27:30.900Z,100.00
2023-02-04T09:29:57.248Z,100.00
2023-02-04T09:32:23.939Z,100.00
2023-02-04T09:34:50.293Z,100.00
2023-02-04T09:37:16.696Z,100.00
2023-02-04T09:39:43.066Z,100.00
2023-02-04T09:42:14.284Z,98.99
2023-02-04T09:44:40.711Z,90.61
2023-02-04T09:47:09.479Z,84.82
2023-02-04T09:49:35.836Z,75.64
2023-02-04T09:52:02.239Z,70.48
2023-02-04T09:54:28.604Z,67.06
2023-02-04T09:56:54.955Z,61.27
2023-02-04T09:59:22.536Z,58.37
2023-02-04T10:01:55.897Z,56.05
2023-02-04T10:04:22.241Z,55.23
2023-02-04T10:06:48.576Z,53.47
2023-02-04T10:09:15.169Z,55.00
2023-02-04T10:11:42.046Z,53.27
2023-02-04T10:14:16.639Z,48.04
2023-02-04T10:16:43.585Z,45.49
2023-02-04T10:19:13.759Z,42.56
2023-02-04T10:21:40.603Z,41.66
2023-02-04T10:24:17.312Z,41.06
2023-02-04T10:26:43.714Z,39.29
2023-02-04T10:29:17.170Z,37.87
2023-02-04T10:31:45.512Z,36.70
2023-02-04T10:34:22.945Z,34.94
2023-02-04T10:36:51.398Z,33.68
2023-02-04T10:39:18.667Z,34.65
2023-02-04T10:41:55.129Z,36.46
2023-02-04T10:44:35.893Z,49.62
2023-02-04T10:47:08.504Z,55.36
2023-02-04T10:49:34.913Z,42.04
2023-02-04T10:52:01.373Z,32.18
2023-02-04T10:54:30.174Z,31.96
2023-02-04T10:57:02.548Z,31.70
2023-02-04T10:59:29.129Z,49.67
2023-02-04T11:01:56.516Z,58.98
2023-02-04T11:04:23.125Z,58.93
2023-02-04T11:06:50.528Z,61.52
2023-02-04T11:09:17.074Z,70.86
2023-02-04T11:11:47.884Z,78.45
2023-02-04T11:14:29.222Z,82.75
2023-02-04T11:17:00.533Z,83.47
2023-02-04T11:19:53.637Z,83.42
2023-02-04T11:22:24.505Z,86.58
2023-02-04T11:24:51.238Z,83.26
2023-02-04T11:27:23.098Z,90.47
2023-02-04T11:29:49.634Z,87.07
2023-02-04T11:32:37.748Z,86.92
2023-02-04T11:35:24.625Z,92.03
2023-02-04T11:37:51.026Z,99.14
2023-02-04T11:40:27.590Z,97.62
2023-02-04T11:42:58.677Z,100.00
2023-02-04T11:45:28.125Z,100.00
2023-02-04T11:47:56.245Z,100.00
2023-02-04T11:50:33.779Z,100.00
2023-02-04T11:53:02.029Z,100.00
2023-02-04T11:55:29.712Z,100.00
2023-02-04T11:57:56.454Z,100.00
2023-02-04T12:00:30.221Z,100.00
2023-02-04T12:02:57.699Z,100.00
2023-02-04T12:05:35.323Z,100.00
2023-02-04T12:08:11.780Z,100.00
2023-02-04T12:10:38.292Z,100.00
2023-02-04T12:13:12.721Z,100.00
2023-02-04T12:15:39.175Z,100.00
2023-02-04T12:18:10.003Z,99.17
2023-02-04T12:20:37.182Z,100.00
2023-02-04T12:23:04.231Z,100.00
2023-02-04T12:25:31.116Z,99.60
2023-02-04T12:27:57.953Z,98.54
2023-02-04T12:30:25.383Z,99.12
2023-02-04T12:32:51.730Z,100.00
2023-02-04T12:35:18.247Z,100.00
2023-02-04T12:37:44.687Z,100.00
2023-02-04T12:40:15.837Z,100.00
2023-02-04T12:42:42.812Z,100.00
2023-02-04T12:45:10.336Z,100.00
2023-02-04T12:47:36.784Z,100.00
2023-02-04T12:50:04.074Z,100.00
2023-02-04T12:52:30.423Z,100.00
2023-02-04T12:54:56.761Z,100.00
2023-02-04T12:57:23.198Z,100.00
2023-02-04T12:59:49.646Z,100.00
2023-02-04T13:02:16.027Z,100.00
2023-02-04T13:04:42.466Z,100.00
2023-02-04T13:07:09.271Z,100.00
2023-02-04T13:09:36.150Z,100.00
2023-02-04T13:12:03.004Z,100.00
2023-02-04T13:14:29.350Z,100.00
2023-02-04T13:16:55.732Z,100.00
2023-02-04T13:19:22.107Z,100.00
2023-02-04T13:21:48.510Z,100.00
2023-02-04T13:24:14.942Z,100.00
2023-02-04T13:26:41.345Z,100.00
2023-02-04T13:29:07.745Z,100.00
2023-02-04T13:31:34.161Z,100.00
2023-02-04T13:34:00.613Z,100.00
2023-02-04T13:36:28.356Z,100.00
2023-02-04T13:38:54.745Z,100.00
2023-02-04T13:41:21.336Z,100.00
2023-02-04T13:43:47.692Z,100.00
2023-02-04T13:46:14.204Z,100.00
2023-02-04T13:48:40.963Z,100.00
2023-02-04T13:51:07.345Z,100.00
2023-02-04T13:53:33.694Z,100.00
2023-02-04T13:56:01.585Z,100.00
2023-02-04T13:58:27.972Z,100.00
2023-02-04T14:00:57.394Z,100.00
2023-02-04T14:03:24.885Z,100.00
2023-02-04T14:05:51.424Z,100.00
2023-02-04T14:08:17.823Z,100.00
2023-02-04T14:10:44.440Z,100.00
2023-02-04T14:13:10.794Z,100.00
2023-02-04T14:15:41.628Z,100.00
2023-02-04T14:18:09.028Z,100.00
2023-02-04T14:20:35.900Z,100.00
2023-02-04T14:23:02.531Z,100.00
2023-02-04T14:25:29.176Z,100.00
2023-02-04T14:27:57.323Z,100.00
2023-02-04T14:30:25.764Z,100.00
2023-02-04T14:32:52.166Z,100.00
2023-02-04T14:35:18.800Z,100.00
2023-02-04T14:37:45.265Z,100.00
2023-02-04T14:40:12.482Z,100.00
2023-02-04T14:42:38.906Z,100.00
2023-02-04T14:45:06.112Z,100.00
2023-02-04T14:47:32.906Z,100.00
2023-02-04T14:49:59.287Z,100.00
2023-02-04T14:52:25.661Z,100.00
2023-02-04T14:54:52.039Z,100.00
2023-02-04T14:57:18.480Z,100.00
2023-02-04T14:59:44.850Z,100.00
2023-02-04T15:02:11.958Z,100.00
2023-02-04T15:04:38.478Z,100.00
2023-02-04T15:07:04.847Z,100.00
2023-02-04T15:09:31.311Z,100.00
2023-02-04T15:11:57.723Z,100.00
2023-02-04T15:14:24.080Z,100.00
2023-02-04T15:16:50.780Z,100.00
2023-02-04T15:19:17.688Z,100.00
2023-02-04T15:21:44.904Z,100.00
2023-02-04T15:24:11.626Z,100.00
2023-02-04T15:26:38.160Z,100.00
2023-02-04T15:29:05.080Z,100.00
2023-02-04T15:31:31.708Z,100.00
2023-02-04T15:33:58.120Z,100.00
2023-02-04T15:36:24.513Z,100.00
2023-02-04T15:38:51.081Z,100.00
2023-02-04T15:41:17.511Z,100.00
2023-02-04T15:43:44.068Z,100.00
2023-02-04T15:46:10.491Z,100.00
2023-02-04T15:48:36.865Z,100.00
2023-02-04T15:51:03.430Z,100.00
2023-02-04T15:53:29.986Z,100.00
2023-02-04T15:55:56.318Z,100.00
2023-02-04T15:58:22.721Z,100.00
2023-02-04T16:00:49.299Z,100.00
2023-02-04T16:03:15.641Z,100.00
2023-02-04T16:05:41.998Z,100.00
2023-02-04T16:08:08.639Z,100.00
2023-02-04T16:10:35.256Z,100.00
2023-02-04T16:13:01.719Z,100.00
2023-02-04T16:15:28.315Z,100.00
2023-02-04T16:17:57.587Z,92.91
2023-02-04T16:20:24.031Z,83.81
2023-02-04T16:22:50.617Z,72.02
2023-02-04T16:25:17.019Z,52.46
2023-02-04T16:27:43.359Z,46.99
2023-02-04T16:30:10.967Z,44.69
2023-02-04T16:32:37.961Z,42.96
2023-02-04T16:35:04.522Z,40.66
2023-02-04T16:37:31.183Z,37.36
2023-02-04T16:39:57.593Z,36.65
2023-02-04T16:42:23.988Z,29.69
2023-02-04T16:44:50.360Z,21.10
2023-02-04T16:47:16.804Z,13.32
2023-02-04T16:49:44.790Z,9.58
2023-02-04T16:52:11.441Z,1.82
2023-02-04T16:54:37.795Z,0.00
2023-02-04T16:57:04.180Z,0.00
2023-02-04T16:59:30.778Z,0.00
2023-02-04T17:02:03.079Z,0.00
2023-02-04T17:04:30.411Z,0.00
2023-02-04T17:06:57.048Z,0.00
2023-02-04T17:09:23.469Z,0.00
2023-02-04T17:11:49.921Z,0.00
2023-02-04T17:14:16.309Z,0.00
2023-02-04T17:16:43.296Z,0.00
2023-02-04T17:19:09.977Z,0.00
2023-02-04T17:21:39.086Z,0.00
2023-02-04T17:24:08.733Z,0.00
2023-02-04T17:26:39.664Z,0.00
2023-02-04T17:29:11.112Z,0.00
2023-02-04T17:31:37.680Z,0.00
2023-02-04T17:34:04.667Z,0.00
2023-02-04T17:36:31.336Z,0.00
2023-02-04T17:38:57.808Z,0.00
2023-02-04T17:41:24.479Z,0.00
2023-02-04T17:43:50.895Z,0.00
2023-02-04T17:46:17.273Z,0.00
2023-02-04T17:48:43.887Z,0.00
2023-02-04T17:51:10.341Z,0.00
2023-02-04T17:53:38.745Z,0.00
2023-02-04T17:56:09.722Z,0.00
2023-02-04T17:58:37.641Z,0.00
2023-02-04T18:01:10.085Z,0.00
2023-02-04T18:03:36.858Z,0.00
2023-02-04T18:06:15.695Z,0.00
2023-02-04T18:08:42.255Z,0.00
2023-02-04T18:11:20.452Z,0.00
2023-02-04T18:13:48.752Z,0.00
2023-02-04T18:16:18.325Z,0.00
2023-02-04T18:18:44.730Z,0.00
2023-02-04T18:21:19.144Z,0.00
2023-02-04T18:23:45.994Z,0.00
2023-02-04T18:26:23.251Z,0.00
2023-02-04T18:28:49.833Z,0.00
2023-02-04T18:31:32.014Z,0.00
2023-02-04T18:33:58.437Z,0.00
2023-02-04T18:36:27.276Z,0.00
2023-02-04T18:38:54.261Z,0.00
2023-02-04T18:41:20.862Z,0.00
2023-02-04T18:43:50.476Z,0.00
2023-02-04T18:46:24.008Z,0.00
2023-02-04T18:49:02.689Z,0.00
2023-02-04T18:51:31.311Z,0.00
2023-02-04T18:53:59.996Z,0.00
2023-02-04T18:56:26.546Z,0.00
2023-02-04T18:58:52.990Z,0.00
2023-02-04T19:01:25.494Z,0.00
2023-02-04T19:03:53.077Z,0.00
2023-02-04T19:06:29.137Z,0.00
2023-02-04T19:09:02.436Z,0.00
2023-02-04T19:11:41.855Z,0.00
2023-02-04T19:14:15.618Z,0.00
2023-02-04T19:16:42.235Z,0.00
2023-02-04T19:19:42.656Z,0.00
2023-02-04T19:22:19.841Z,0.00
2023-02-04T19:24:46.613Z,0.00
2023-02-04T19:27:36.154Z,0.00
2023-02-04T19:30:23.486Z,0.00
2023-02-04T19:32:55.622Z,0.00
2023-02-04T19:35:29.314Z,0.00
2023-02-04T19:38:00.860Z,0.00
2023-02-04T19:40:32.192Z,0.00
2023-02-04T19:43:04.216Z,0.92
2023-02-04T19:45:30.872Z,1.83
2023-02-04T19:47:57.678Z,1.99
2023-02-04T19:50:33.187Z,2.29
2023-02-04T19:52:59.745Z,2.13
2023-02-04T19:55:32.237Z,0.60
2023-02-04T19:58:24.604Z,0.75
2023-02-04T20:01:09.736Z,2.05
2023-02-04T20:03:41.203Z,2.44
2023-02-04T20:06:10.573Z,3.43
2023-02-04T20:08:41.287Z,3.04
2023-02-04T20:11:29.086Z,3.02
2023-02-04T20:13:59.746Z,3.64
2023-02-04T20:16:39.857Z,4.67
2023-02-04T20:19:30.836Z,5.73
2023-02-04T20:21:57.321Z,6.22
2023-02-04T20:24:23.720Z,6.26
2023-02-04T20:26:53.503Z,6.04
2023-02-04T20:29:22.468Z,6.50
2023-02-04T20:31:49.138Z,5.28
2023-02-04T20:34:19.430Z,4.84
2023-02-04T20:36:46.996Z,4.68
2023-02-04T20:39:28.539Z,4.61
2023-02-04T20:41:59.312Z,4.39
2023-02-04T20:44:27.732Z,4.59
2023-02-04T20:47:20.136Z,4.82
2023-02-04T20:49:52.943Z,4.28
2023-02-04T20:52:48.468Z,3.99
2023-02-04T20:55:23.545Z,3.14
2023-02-04T20:57:51.757Z,2.46
2023-02-04T21:00:32.033Z,1.31
2023-02-04T21:03:18.814Z,0.38
2023-02-04T21:05:45.236Z,1.02
2023-02-04T21:08:20.985Z,1.87
2023-02-04T21:10:47.652Z,3.02
2023-02-04T21:13:14.060Z,3.88
2023-02-04T21:15:40.446Z,5.17
2023-02-04T21:18:07.049Z,7.33
2023-02-04T21:20:37.080Z,7.80
2023-02-04T21:23:03.799Z,8.63
2023-02-04T21:25:30.474Z,8.24
2023-02-04T21:27:57.152Z,6.34
2023-02-04T21:30:26.282Z,5.45
2023-02-04T21:32:52.854Z,6.31
2023-02-04T21:35:24.428Z,5.81
2023-02-04T21:37:51.720Z,5.87
2023-02-04T21:40:22.001Z,6.00
2023-02-04T21:42:49.207Z,7.16
2023-02-04T21:45:17.469Z,7.02
2023-02-04T21:47:44.618Z,5.94
2023-02-04T21:50:11.132Z,5.71
2023-02-04T21:52:37.477Z,6.65
2023-02-04T21:55:04.069Z,5.91
2023-02-04T21:57:30.466Z,5.45
2023-02-04T21:59:56.911Z,5.63
2023-02-04T22:02:25.346Z,8.78
2023-02-04T22:04:52.221Z,9.28
2023-02-04T22:07:18.919Z,8.16
2023-02-04T22:09:45.386Z,8.23
2023-02-04T22:12:11.948Z,7.64
2023-02-04T22:14:56.683Z,7.41
2023-02-04T22:17:23.135Z,6.76
2023-02-04T22:19:49.490Z,6.86
2023-02-04T22:22:16.121Z,5.84
2023-02-04T22:24:42.522Z,5.73
2023-02-04T22:27:09.113Z,6.20
2023-02-04T22:29:35.473Z,5.98
2023-02-04T22:32:01.842Z,5.20
2023-02-04T22:34:28.399Z,3.88
2023-02-04T22:36:55.719Z,3.26
2023-02-04T22:39:22.084Z,3.05
2023-02-04T22:41:48.454Z,2.85
2023-02-04T22:44:14.846Z,2.22
2023-02-04T22:46:41.233Z,1.13
2023-02-04T22:49:07.692Z,0.90
2023-02-04T22:51:34.144Z,2.16
2023-02-04T22:54:01.476Z,4.65
2023-02-04T22:56:28.026Z,4.64
2023-02-04T22:58:54.429Z,4.00
2023-02-04T23:01:20.807Z,2.83
2023-02-04T23:03:48.411Z,0.89
2023-02-04T23:06:15.379Z,1.28
2023-02-04T23:08:41.988Z,0.64
2023-02-04T23:11:09.347Z,0.34
2023-02-04T23:13:36.104Z,0.00
2023-02-04T23:16:02.777Z,0.00
2023-02-04T23:18:29.142Z,2.55
2023-02-04T23:20:55.526Z,6.21
2023-02-04T23:23:21.877Z,7.38
2023-02-04T23:25:48.258Z,7.15
2023-02-04T23:28:14.947Z,7.94
2023-02-04T23:30:41.404Z,7.44
2023-02-04T23:33:07.934Z,5.69
2023-02-04T23:35:36.704Z,6.28
2023-02-04T23:38:03.150Z,6.13
2023-02-04T23:40:29.704Z,5.50
2023-02-04T23:42:56.064Z,4.16
2023-02-04T23:45:22.412Z,3.56
2023-02-04T23:47:48.965Z,4.25
2023-02-04T23:50:15.948Z,4.42
2023-02-04T23:52:43.150Z,2.94
2023-02-04T23:55:09.620Z,2.46
2023-02-04T23:57:35.989Z,2.73
